SWW weather

Avenger Field
Sweetwater, Texas, United States

Public forecast

Using degrees Fahrenheit for public forecast. Weather courtesy of forecast.io.

Current aviation weather report (METAR) for Avenger Field

Retrieved 2020/04/05 18:15 UTC (3 minutes ago):

KSWW 051815Z AUTO 12007KT 3SM OVC003 12/12 A3006 RMK AO2 T01210121

Closest aviation forecast (TAF) to Avenger Field

Closest forecast is Dyess Air Force Base, 31.2 nm (57.7 km) E. Retrieved 2020/04/05 18:06 UTC (12 minutes ago):

TAF KDYS 051803Z 0518/0622 14010G15KT 9999 BKN008 BKN200 QNH2997INS BECMG 0519/0520 16010G15KT 9999 BKN015 BKN200 QNH2991INS BECMG 0602/0603 16012KT 9999 BKN010 QNH2994INS BECMG 0605/0606 17012KT 8000 BR OVC007 QNH2992INS BECMG 0611/0612 18012KT 9000 -SHRA OVC010 QNH2994INS BECMG 0614/0615 19012G20KT 9000 -SHRA BKN015 QNH2990INS BECMG 0619/0620 19012G20KT 9999 NSW SCT020 SCT100 BKN180 QNH2986INS TX21/0521Z TN14/0518Z